createdAt,value
2023-03-23T00:00:58.312Z,64.72
2023-03-23T00:01:58.299Z,65.02
2023-03-23T00:02:58.275Z,64.81
2023-03-23T00:03:58.269Z,64.41
2023-03-23T00:04:58.253Z,64.81
2023-03-23T00:05:58.282Z,64.72
2023-03-23T00:06:58.776Z,64.72
2023-03-23T00:07:58.222Z,64.54
2023-03-23T00:08:58.777Z,64.61
2023-03-23T00:09:58.229Z,64.41
2023-03-23T00:10:58.208Z,64.61
2023-03-23T00:11:58.190Z,64.20
2023-03-23T00:12:58.174Z,64.20
2023-03-23T00:13:58.289Z,64.11
2023-03-23T00:14:58.164Z,64.51
2023-03-23T00:15:58.168Z,64.31
2023-03-23T00:16:59.168Z,64.20
2023-03-23T00:17:58.140Z,64.00
2023-03-23T00:18:58.138Z,63.39
2023-03-23T00:19:58.138Z,64.20
2023-03-23T00:20:58.127Z,63.59
2023-03-23T00:21:58.153Z,63.49
2023-03-23T00:23:57.912Z,64.72
2023-03-23T00:24:57.935Z,64.11
2023-03-23T00:25:57.898Z,63.90
2023-03-23T00:26:58.982Z,63.29
2023-03-23T00:27:58.994Z,63.70
2023-03-23T00:28:58.999Z,63.39
2023-03-23T00:29:58.975Z,63.80
2023-03-23T00:30:58.965Z,63.77
2023-03-23T00:31:58.958Z,63.36
2023-03-23T00:32:58.954Z,63.29
2023-03-23T00:33:58.954Z,63.80
2023-03-23T00:34:58.944Z,64.20
2023-03-23T00:35:58.950Z,63.77
2023-03-23T00:36:58.915Z,63.67
2023-03-23T00:37:58.917Z,63.87
2023-03-23T00:38:58.898Z,64.07
2023-03-23T00:39:58.884Z,63.80
2023-03-23T00:40:58.888Z,63.80
2023-03-23T00:41:58.875Z,63.80
2023-03-23T00:42:58.879Z,63.49
2023-03-23T00:43:58.853Z,63.49
2023-03-23T00:44:59.780Z,63.67
2023-03-23T00:45:58.843Z,63.59
2023-03-23T00:46:58.826Z,63.70
2023-03-23T00:47:59.352Z,63.46
2023-03-23T00:48:59.807Z,63.59
2023-03-23T00:49:58.806Z,63.87
2023-03-23T00:50:58.797Z,63.67
2023-03-23T00:51:58.807Z,63.49
2023-03-23T00:52:58.790Z,63.67
2023-03-23T00:53:58.770Z,64.00
2023-03-23T00:54:58.773Z,64.31
2023-03-23T00:55:58.764Z,64.20
2023-03-23T00:56:58.757Z,63.59
2023-03-23T00:57:58.750Z,64.00
2023-03-23T00:58:58.740Z,63.70
2023-03-23T00:59:58.728Z,63.77
2023-03-23T01:00:59.713Z,63.77
2023-03-23T01:01:58.710Z,63.87
2023-03-23T01:02:58.713Z,63.67
2023-03-23T01:03:58.692Z,63.87
2023-03-23T01:04:59.364Z,64.18
2023-03-23T01:05:58.698Z,64.79
2023-03-23T01:06:58.674Z,64.58
2023-03-23T01:07:58.671Z,64.79
2023-03-23T01:08:58.651Z,65.12
2023-03-23T01:09:58.641Z,65.02
2023-03-23T01:10:59.362Z,65.12
2023-03-23T01:11:58.650Z,64.58
2023-03-23T01:12:58.625Z,64.58
2023-03-23T01:13:58.615Z,64.81
2023-03-23T01:14:58.606Z,64.51
2023-03-23T01:15:58.597Z,64.18
2023-03-23T01:16:58.582Z,64.20
2023-03-23T01:17:58.597Z,63.87
2023-03-23T01:18:58.561Z,63.59
2023-03-23T01:19:58.572Z,63.80
2023-03-23T01:20:58.570Z,63.29
2023-03-23T01:21:58.565Z,64.20
2023-03-23T01:22:58.540Z,63.36
2023-03-23T01:23:58.546Z,63.67
2023-03-23T01:24:58.533Z,63.97
2023-03-23T01:25:58.513Z,63.57
2023-03-23T01:26:58.547Z,63.77
2023-03-23T01:27:58.494Z,63.57
2023-03-23T01:28:58.490Z,63.70
2023-03-23T01:29:58.476Z,63.46
2023-03-23T01:30:58.480Z,63.57
2023-03-23T01:31:58.473Z,63.77
2023-03-23T01:32:58.490Z,63.57
2023-03-23T01:33:58.451Z,63.80
2023-03-23T01:34:58.446Z,63.90
2023-03-23T01:35:58.474Z,64.79
2023-03-23T01:36:58.418Z,65.09
2023-03-23T01:37:58.423Z,65.53
2023-03-23T01:38:58.413Z,65.53
2023-03-23T01:39:58.403Z,65.33
2023-03-23T01:40:58.395Z,65.02
2023-03-23T01:41:58.399Z,65.63
2023-03-23T01:42:58.384Z,65.53
2023-03-23T01:43:58.382Z,65.50
2023-03-23T01:44:58.375Z,65.80
2023-03-23T01:45:58.354Z,65.43
2023-03-23T01:46:58.355Z,65.12
2023-03-23T01:47:58.368Z,65.30
2023-03-23T01:48:58.333Z,65.50
2023-03-23T01:49:58.336Z,65.30
2023-03-23T01:50:58.303Z,65.50
2023-03-23T01:51:58.311Z,65.63
2023-03-23T01:52:58.296Z,65.53
2023-03-23T01:53:58.295Z,65.83
2023-03-23T01:54:58.275Z,65.63
2023-03-23T01:55:58.282Z,66.55
2023-03-23T01:56:58.272Z,66.14
2023-03-23T01:57:58.247Z,66.82
2023-03-23T01:58:58.252Z,66.55
2023-03-23T01:59:58.245Z,66.55
2023-03-23T02:00:58.240Z,66.85
2023-03-23T02:01:58.244Z,66.65
2023-03-23T02:02:58.221Z,67.26
2023-03-23T02:03:58.212Z,66.75
2023-03-23T02:04:58.230Z,66.96
2023-03-23T02:05:58.194Z,67.05
2023-03-23T02:06:58.200Z,67.57
2023-03-23T02:07:58.179Z,67.46
2023-03-23T02:08:58.194Z,67.57
2023-03-23T02:09:59.169Z,68.58
2023-03-23T02:10:58.153Z,69.09
2023-03-23T02:11:58.152Z,69.93
2023-03-23T02:12:58.141Z,69.63
2023-03-23T02:13:58.140Z,70.24
2023-03-23T02:14:58.117Z,69.84
2023-03-23T02:15:58.130Z,70.04
2023-03-23T02:16:58.108Z,70.65
2023-03-23T02:17:58.094Z,70.65
2023-03-23T02:18:58.099Z,70.55
2023-03-23T02:19:58.079Z,70.55
2023-03-23T02:20:58.086Z,71.06
2023-03-23T02:21:58.072Z,71.36
2023-03-23T02:22:58.053Z,70.89
2023-03-23T02:23:58.052Z,70.95
2023-03-23T02:24:58.047Z,70.55
2023-03-23T02:25:58.034Z,71.19
2023-03-23T02:26:58.047Z,71.16
2023-03-23T02:27:58.026Z,70.95
2023-03-23T02:28:58.009Z,71.47
2023-03-23T02:29:58.012Z,71.36
2023-03-23T02:30:57.990Z,71.19
2023-03-23T02:31:58.808Z,71.19
2023-03-23T02:32:58.002Z,70.89
2023-03-23T02:33:57.973Z,71.39
2023-03-23T02:34:57.999Z,71.39
2023-03-23T02:35:58.013Z,71.97
2023-03-23T02:36:57.955Z,71.80
2023-03-23T02:37:57.954Z,71.16
2023-03-23T02:38:57.944Z,71.56
2023-03-23T02:39:57.937Z,71.67
2023-03-23T02:40:57.916Z,71.67
2023-03-23T02:41:57.936Z,71.97
2023-03-23T02:42:57.904Z,72.01
2023-03-23T02:43:57.892Z,72.69
2023-03-23T02:44:57.905Z,72.62
2023-03-23T02:45:57.882Z,72.31
2023-03-23T02:46:57.876Z,73.54
2023-03-23T02:47:57.855Z,73.10
2023-03-23T02:48:57.852Z,72.21
2023-03-23T02:49:57.851Z,72.72
2023-03-23T02:50:58.393Z,72.72
2023-03-23T02:51:57.840Z,73.33
2023-03-23T02:52:57.815Z,73.74
2023-03-23T02:53:57.806Z,73.74
2023-03-23T02:54:57.791Z,73.33
2023-03-23T02:55:57.788Z,73.57
2023-03-23T02:56:57.788Z,73.94
2023-03-23T02:57:57.899Z,74.15
2023-03-23T02:58:58.762Z,74.99
2023-03-23T02:59:57.764Z,74.49
2023-03-23T03:00:57.768Z,74.65
2023-03-23T03:01:57.760Z,75.78
2023-03-23T03:02:57.727Z,76.01
2023-03-23T03:03:57.725Z,75.81
2023-03-23T03:04:57.715Z,75.92
2023-03-23T03:05:57.718Z,76.01
2023-03-23T03:06:57.696Z,75.10
2023-03-23T03:07:57.704Z,75.10
2023-03-23T03:08:57.678Z,75.10
2023-03-23T03:09:57.667Z,75.51
2023-03-23T03:10:57.677Z,76.22
2023-03-23T03:11:58.396Z,75.10
2023-03-23T03:12:57.662Z,76.35
2023-03-23T03:13:57.638Z,77.27
2023-03-23T03:14:57.633Z,76.25
2023-03-23T03:15:58.402Z,76.25
2023-03-23T03:16:57.608Z,76.19
2023-03-23T03:17:57.642Z,76.39
2023-03-23T03:18:57.597Z,77.00
2023-03-23T03:19:57.602Z,77.21
2023-03-23T03:20:57.583Z,78.12
2023-03-23T03:21:57.601Z,77.51
2023-03-23T03:22:57.594Z,77.51
2023-03-23T03:23:57.562Z,78.43
2023-03-23T03:24:57.558Z,78.02
2023-03-23T03:25:57.548Z,78.23
2023-03-23T03:26:58.325Z,78.12
2023-03-23T03:27:57.525Z,78.02
2023-03-23T03:28:57.536Z,78.33
2023-03-23T03:29:57.518Z,78.43
2023-03-23T03:30:57.514Z,78.84
2023-03-23T03:31:57.501Z,77.72
2023-03-23T03:32:57.494Z,77.92
2023-03-23T03:33:57.497Z,78.23
2023-03-23T03:34:57.470Z,78.02
2023-03-23T03:35:57.488Z,77.51
2023-03-23T03:36:57.467Z,78.02
2023-03-23T03:37:57.454Z,77.82
2023-03-23T03:38:57.461Z,78.12
2023-03-23T03:39:57.464Z,78.74
2023-03-23T03:40:57.426Z,78.12
2023-03-23T03:41:57.413Z,78.64
2023-03-23T03:42:57.413Z,78.43
2023-03-23T03:43:57.406Z,78.64
2023-03-23T03:44:57.476Z,78.53
2023-03-23T03:45:57.397Z,78.43
2023-03-23T03:46:57.401Z,78.64
2023-03-23T03:47:57.433Z,78.43
2023-03-23T03:48:57.374Z,79.28
2023-03-23T03:49:57.356Z,78.94
2023-03-23T03:50:57.361Z,79.35
2023-03-23T03:51:57.335Z,79.45
2023-03-23T03:52:57.326Z,79.75
2023-03-23T03:55:04.669Z,79.55
2023-03-23T03:56:04.673Z,79.55
2023-03-23T03:57:05.750Z,79.59
2023-03-23T03:58:05.751Z,79.49
2023-03-23T03:59:21.900Z,80.30
2023-03-23T04:00:06.731Z,80.00
2023-03-23T04:01:05.716Z,80.61
2023-03-23T04:02:05.720Z,80.37
2023-03-23T04:03:05.763Z,80.61
2023-03-23T04:04:05.705Z,80.82
2023-03-23T04:05:05.694Z,80.82
2023-03-23T04:06:05.699Z,81.32
2023-03-23T04:07:05.684Z,81.53
2023-03-23T04:08:09.393Z,81.32
2023-03-23T04:09:08.257Z,81.77
2023-03-23T04:10:05.665Z,81.32
2023-03-23T04:11:05.652Z,81.94
2023-03-23T04:12:06.631Z,81.84
2023-03-23T04:13:05.619Z,82.24
2023-03-23T04:14:05.635Z,82.28
2023-03-23T04:15:05.964Z,82.89
2023-03-23T04:16:07.307Z,83.10
2023-03-23T04:17:05.612Z,83.51
2023-03-23T04:18:05.590Z,83.20
2023-03-23T04:19:05.576Z,83.81
2023-03-23T04:20:05.569Z,83.71
2023-03-23T04:21:05.588Z,83.81
2023-03-23T04:22:05.547Z,84.12
2023-03-23T04:23:05.549Z,83.92
2023-03-23T04:24:05.594Z,84.53
2023-03-23T04:25:06.545Z,84.12
2023-03-23T04:26:05.518Z,84.22
2023-03-23T04:27:05.523Z,84.88
2023-03-23T04:28:05.503Z,85.24
2023-03-23T04:29:05.671Z,84.74
2023-03-23T04:30:05.494Z,85.45
2023-03-23T04:31:06.134Z,84.77
2023-03-23T04:32:05.483Z,85.49
2023-03-23T04:33:05.463Z,85.59
2023-03-23T04:34:05.486Z,85.49
2023-03-23T04:35:12.829Z,85.35
2023-03-23T04:36:06.453Z,85.79
2023-03-23T04:37:06.441Z,86.10
2023-03-23T04:38:05.438Z,86.10
2023-03-23T04:39:05.426Z,86.30
2023-03-23T04:40:05.405Z,86.51
2023-03-23T04:41:05.408Z,86.71
2023-03-23T04:42:05.396Z,86.82
2023-03-23T04:43:05.401Z,86.91
2023-03-23T04:44:05.375Z,87.73
2023-03-23T04:45:05.378Z,87.77
2023-03-23T04:46:05.364Z,87.67
2023-03-23T04:47:05.363Z,87.73
2023-03-23T04:48:05.350Z,87.53
2023-03-23T04:49:05.335Z,87.73
2023-03-23T04:50:05.346Z,87.67
2023-03-23T04:51:05.332Z,87.37
2023-03-23T04:52:05.333Z,87.67
2023-03-23T04:53:05.325Z,87.98
2023-03-23T04:54:05.300Z,88.08
2023-03-23T04:55:06.114Z,88.49
2023-03-23T04:56:05.277Z,88.59
2023-03-23T04:57:05.284Z,88.39
2023-03-23T04:58:05.255Z,88.29
2023-03-23T04:59:05.269Z,89.31
2023-03-23T05:00:05.252Z,89.20
2023-03-23T05:01:05.240Z,89.41
2023-03-23T05:02:14.736Z,89.20
2023-03-23T05:03:06.225Z,89.31
2023-03-23T05:04:05.216Z,89.97
2023-03-23T05:05:05.276Z,89.86
2023-03-23T05:06:05.231Z,90.06
2023-03-23T05:07:05.203Z,90.17
2023-03-23T05:08:05.183Z,90.12
2023-03-23T05:09:05.172Z,90.06
2023-03-23T05:10:05.187Z,90.47
2023-03-23T05:11:05.161Z,90.99
2023-03-23T05:12:05.149Z,91.29
2023-03-23T05:13:05.143Z,91.19
2023-03-23T05:14:05.151Z,90.88
2023-03-23T05:15:05.152Z,91.29
2023-03-23T05:16:05.133Z,91.29
2023-03-23T05:17:05.124Z,91.95
2023-03-23T05:18:05.109Z,91.60
2023-03-23T05:19:05.136Z,91.91
2023-03-23T05:20:05.102Z,91.60
2023-03-23T05:21:05.094Z,92.21
2023-03-23T05:22:05.071Z,92.01
2023-03-23T05:23:05.068Z,92.25
2023-03-23T05:24:05.061Z,91.80
2023-03-23T05:25:05.045Z,92.42
2023-03-23T05:26:05.050Z,91.95
2023-03-23T05:27:05.025Z,91.91
2023-03-23T05:28:05.128Z,92.25
2023-03-23T05:29:05.028Z,92.25
2023-03-23T05:30:05.012Z,91.91
2023-03-23T05:31:05.007Z,92.77
2023-03-23T05:32:06.674Z,92.77
2023-03-23T05:33:05.017Z,92.56
2023-03-23T05:34:04.995Z,92.77
2023-03-23T05:35:04.972Z,93.69
2023-03-23T05:36:05.038Z,93.99
2023-03-23T05:37:04.947Z,94.60
2023-03-23T05:38:04.941Z,93.63
2023-03-23T05:39:04.958Z,93.79
2023-03-23T05:40:04.934Z,93.73
2023-03-23T05:41:04.942Z,93.84
2023-03-23T05:42:04.914Z,94.55
2023-03-23T05:43:04.902Z,94.04
2023-03-23T05:44:04.890Z,94.34
2023-03-23T05:45:04.881Z,94.14
2023-03-23T05:46:04.907Z,94.04
2023-03-23T05:47:05.627Z,93.73
2023-03-23T05:48:04.878Z,94.14
2023-03-23T05:49:04.857Z,93.73
2023-03-23T05:50:05.547Z,93.84
2023-03-23T05:51:04.896Z,94.14
2023-03-23T05:52:04.828Z,93.84
2023-03-23T05:53:04.828Z,93.84
2023-03-23T05:54:04.848Z,93.73
2023-03-23T05:55:04.833Z,93.93
2023-03-23T05:56:04.798Z,94.10
2023-03-23T05:57:04.806Z,94.40
2023-03-23T05:58:04.787Z,93.99
2023-03-23T05:59:05.814Z,94.20
2023-03-23T06:00:04.773Z,94.10
2023-03-23T06:01:04.754Z,93.79
2023-03-23T06:02:04.758Z,93.59
2023-03-23T06:03:04.739Z,93.89
2023-03-23T06:04:04.742Z,94.10
2023-03-23T06:05:04.720Z,94.20
2023-03-23T06:06:04.763Z,93.85
2023-03-23T06:07:04.711Z,93.28
2023-03-23T06:08:04.701Z,93.48
2023-03-23T06:09:06.563Z,94.60
2023-03-23T06:10:04.684Z,93.38
2023-03-23T06:11:04.686Z,93.18
2023-03-23T06:12:04.704Z,93.18
2023-03-23T06:13:04.657Z,93.38
2023-03-23T06:14:04.661Z,93.48
2023-03-23T06:15:04.664Z,93.59
2023-03-23T06:16:04.641Z,92.97
2023-03-23T06:17:04.648Z,93.03
2023-03-23T06:18:04.626Z,92.97
2023-03-23T06:19:04.611Z,93.38
2023-03-23T06:20:04.608Z,93.07
2023-03-23T06:21:04.656Z,93.07
2023-03-23T06:22:04.580Z,92.97
2023-03-23T06:23:04.605Z,92.56
2023-03-23T06:25:11.425Z,92.62
2023-03-23T06:26:11.431Z,93.13
2023-03-23T06:27:12.301Z,92.62
2023-03-23T06:28:12.502Z,92.93
2023-03-23T06:29:12.511Z,93.13
2023-03-23T06:30:12.487Z,92.93
2023-03-23T06:31:12.538Z,92.83
2023-03-23T06:32:12.470Z,92.62
2023-03-23T06:33:12.468Z,92.52
2023-03-23T06:34:12.467Z,92.58
2023-03-23T06:35:12.449Z,92.83
2023-03-23T06:36:12.475Z,92.78
2023-03-23T06:37:12.456Z,92.58
2023-03-23T06:38:12.441Z,92.52
2023-03-23T06:39:12.425Z,92.58
2023-03-23T06:40:12.419Z,92.62
2023-03-23T06:41:12.407Z,92.72
2023-03-23T06:42:12.420Z,93.03
2023-03-23T06:43:12.391Z,92.52
2023-03-23T06:44:12.395Z,92.52
2023-03-23T06:45:12.386Z,92.83
2023-03-23T06:46:12.359Z,92.93
2023-03-23T06:47:12.364Z,92.83
2023-03-23T06:48:12.345Z,92.93
2023-03-23T06:49:12.354Z,92.66
2023-03-23T06:50:12.339Z,92.62
2023-03-23T06:51:12.364Z,92.93
2023-03-23T06:52:12.353Z,92.56
2023-03-23T06:53:12.351Z,92.21
2023-03-23T06:54:12.318Z,92.58
2023-03-23T06:55:12.288Z,91.86
2023-03-23T06:56:12.298Z,91.86
2023-03-23T06:57:12.301Z,91.05
2023-03-23T06:58:12.396Z,90.53
2023-03-23T06:59:12.283Z,90.29
2023-03-23T07:00:12.265Z,90.80
2023-03-23T07:01:12.249Z,90.59
2023-03-23T07:02:12.243Z,90.39
2023-03-23T07:03:12.233Z,89.73
2023-03-23T07:04:12.218Z,89.32
2023-03-23T07:05:12.231Z,88.92
2023-03-23T07:06:12.212Z,88.37
2023-03-23T07:07:12.204Z,88.67
2023-03-23T07:08:12.192Z,88.06
2023-03-23T07:09:12.197Z,87.30
2023-03-23T07:10:12.199Z,87.61
2023-03-23T07:11:12.439Z,86.45
2023-03-23T07:12:12.243Z,86.30
2023-03-23T07:13:12.197Z,86.16
2023-03-23T07:14:12.154Z,85.58
2023-03-23T07:15:12.138Z,83.70
2023-03-23T07:16:12.146Z,83.15
2023-03-23T07:17:12.132Z,81.90
2023-03-23T07:18:12.129Z,80.98
2023-03-23T07:19:12.110Z,81.79
2023-03-23T07:20:12.131Z,82.54
2023-03-23T07:21:12.095Z,82.75
2023-03-23T07:22:12.385Z,82.68
2023-03-23T07:23:12.065Z,82.89
2023-03-23T07:24:12.061Z,82.75
2023-03-23T07:25:12.065Z,82.34
2023-03-23T07:26:12.053Z,81.90
2023-03-23T07:27:12.050Z,81.39
2023-03-23T07:28:12.034Z,80.88
2023-03-23T07:29:12.881Z,80.78
2023-03-23T07:30:12.042Z,80.88
2023-03-23T07:31:12.001Z,80.78
2023-03-23T07:32:12.007Z,80.78
2023-03-23T07:33:11.993Z,80.21
2023-03-23T07:34:11.990Z,81.16
2023-03-23T07:35:11.968Z,81.57
2023-03-23T07:36:12.004Z,81.81
2023-03-23T07:37:11.966Z,81.95
2023-03-23T07:38:11.954Z,81.95
2023-03-23T07:39:11.951Z,81.40
2023-03-23T07:40:11.938Z,81.10
2023-03-23T07:41:11.940Z,81.20
2023-03-23T07:42:11.936Z,81.40
2023-03-23T07:43:11.914Z,81.16
2023-03-23T07:44:11.897Z,80.96
2023-03-23T07:45:11.894Z,79.90
2023-03-23T07:46:12.895Z,80.00
2023-03-23T07:47:11.873Z,79.19
2023-03-23T07:48:19.617Z,78.38
2023-03-23T07:49:13.867Z,79.36
2023-03-23T07:50:11.865Z,79.46
2023-03-23T07:51:11.860Z,79.66
2023-03-23T07:52:11.842Z,80.00
2023-03-23T07:53:11.827Z,79.86
2023-03-23T07:54:11.857Z,79.70
2023-03-23T07:55:11.817Z,80.21
2023-03-23T07:56:11.835Z,80.21
2023-03-23T07:57:11.803Z,80.31
2023-03-23T07:58:11.796Z,80.96
2023-03-23T07:59:11.788Z,81.26
2023-03-23T08:00:11.768Z,81.84
2023-03-23T08:01:11.781Z,81.33
2023-03-23T08:02:11.760Z,81.02
2023-03-23T08:03:11.760Z,80.62
2023-03-23T08:04:11.743Z,81.12
2023-03-23T08:05:11.752Z,80.72
2023-03-23T08:06:11.741Z,81.33
2023-03-23T08:07:11.727Z,81.06
2023-03-23T08:08:12.716Z,80.96
2023-03-23T08:09:11.720Z,81.06
2023-03-23T08:10:11.687Z,80.72
2023-03-23T08:11:11.698Z,79.90
2023-03-23T08:12:11.713Z,80.17
2023-03-23T08:13:11.681Z,79.77
2023-03-23T08:14:11.667Z,79.25
2023-03-23T08:15:11.658Z,78.81
2023-03-23T08:16:11.638Z,78.30
2023-03-23T08:17:11.648Z,78.00
2023-03-23T08:18:11.657Z,78.10
2023-03-23T08:19:11.614Z,78.81
2023-03-23T08:20:12.668Z,77.70
2023-03-23T08:21:11.620Z,77.15
2023-03-23T08:22:11.620Z,77.97
2023-03-23T08:23:12.398Z,76.91
2023-03-23T08:24:11.914Z,77.15
2023-03-23T08:25:11.563Z,77.22
2023-03-23T08:26:11.580Z,76.51
2023-03-23T08:27:11.565Z,76.10
2023-03-23T08:28:11.552Z,75.70
2023-03-23T08:29:11.540Z,75.70
2023-03-23T08:30:11.542Z,74.78
2023-03-23T08:31:11.521Z,75.09
2023-03-23T08:32:11.514Z,75.79
2023-03-23T08:33:11.524Z,74.95
2023-03-23T08:34:12.909Z,75.32
2023-03-23T08:35:11.494Z,75.42
2023-03-23T08:36:11.513Z,74.95
2023-03-23T08:37:11.462Z,74.61
2023-03-23T08:38:11.469Z,74.71
2023-03-23T08:39:11.469Z,74.44
2023-03-23T08:40:11.489Z,74.54
2023-03-23T08:41:12.267Z,74.34
2023-03-23T08:42:11.434Z,74.65
2023-03-23T08:43:11.432Z,74.14
2023-03-23T08:44:11.428Z,74.44
2023-03-23T08:45:11.416Z,74.68
2023-03-23T08:46:11.411Z,74.98
2023-03-23T08:47:11.500Z,75.49
2023-03-23T08:48:11.405Z,75.79
2023-03-23T08:49:11.440Z,74.62
2023-03-23T08:50:11.378Z,75.12
2023-03-23T08:51:11.477Z,74.98
2023-03-23T08:52:11.350Z,75.63
2023-03-23T08:53:11.388Z,75.70
2023-03-23T08:54:11.406Z,75.39
2023-03-23T08:55:11.343Z,74.88
2023-03-23T08:56:11.373Z,74.48
2023-03-23T08:57:11.322Z,74.54
2023-03-23T08:58:11.327Z,74.14
2023-03-23T08:59:11.323Z,73.39
2023-03-23T09:00:11.437Z,74.14
2023-03-23T09:01:11.942Z,74.10
2023-03-23T09:02:11.325Z,73.93
2023-03-23T09:03:11.268Z,73.73
2023-03-23T09:04:11.254Z,74.44
2023-03-23T09:05:11.284Z,74.54
2023-03-23T09:06:11.252Z,73.90
2023-03-23T09:07:11.414Z,74.04
2023-03-23T09:08:11.913Z,74.04
2023-03-23T09:09:11.255Z,74.44
2023-03-23T09:10:12.229Z,73.73
2023-03-23T09:11:11.822Z,74.24
2023-03-23T09:12:11.207Z,73.53
2023-03-23T09:13:11.212Z,72.78
2023-03-23T09:14:11.186Z,72.28
2023-03-23T09:15:11.851Z,73.43
2023-03-23T09:16:11.164Z,73.63
2023-03-23T09:17:11.910Z,73.63
2023-03-23T09:18:11.148Z,73.53
2023-03-23T09:19:11.149Z,73.93
2023-03-23T09:20:11.141Z,74.00
2023-03-23T09:21:19.138Z,74.24
2023-03-23T09:22:12.134Z,73.93
2023-03-23T09:23:12.121Z,74.04
2023-03-23T09:24:11.098Z,74.17
2023-03-23T09:25:11.898Z,74.27
2023-03-23T09:26:11.086Z,74.58
2023-03-23T09:27:11.083Z,74.17
2023-03-23T09:28:11.074Z,74.27
2023-03-23T09:29:11.072Z,73.46
2023-03-23T09:30:11.100Z,73.66
2023-03-23T09:31:11.057Z,74.24
2023-03-23T09:32:11.030Z,73.57
2023-03-23T09:33:11.037Z,73.97
2023-03-23T09:34:12.025Z,74.38
2023-03-23T09:35:11.007Z,73.77
2023-03-23T09:36:11.021Z,73.50
2023-03-23T09:37:10.989Z,74.10
2023-03-23T09:38:11.021Z,74.51
2023-03-23T09:39:10.970Z,74.51
2023-03-23T09:40:10.972Z,74.62
2023-03-23T09:41:10.982Z,74.71
2023-03-23T09:42:10.947Z,74.71
2023-03-23T09:43:10.956Z,74.92
2023-03-23T09:44:10.963Z,74.92
2023-03-23T09:45:10.922Z,74.68
2023-03-23T09:46:10.926Z,74.88
2023-03-23T09:47:10.932Z,74.27
2023-03-23T09:48:10.916Z,73.63
2023-03-23T09:49:10.897Z,73.02
2023-03-23T09:50:10.893Z,72.68
2023-03-23T09:51:10.873Z,72.58
2023-03-23T09:52:10.882Z,72.38
2023-03-23T09:53:10.859Z,72.92
2023-03-23T09:54:10.850Z,72.41
2023-03-23T09:55:10.853Z,72.48
2023-03-23T09:56:10.859Z,72.52
2023-03-23T09:57:10.840Z,73.22
2023-03-23T09:58:10.819Z,72.38
2023-03-23T09:59:10.813Z,71.94
2023-03-23T10:00:10.801Z,71.97
2023-03-23T10:01:10.788Z,72.17
2023-03-23T10:02:10.788Z,71.44
2023-03-23T10:03:10.779Z,71.40
2023-03-23T10:04:10.774Z,71.09
2023-03-23T10:05:10.756Z,70.49
2023-03-23T10:06:10.768Z,70.08
2023-03-23T10:07:10.749Z,70.08
2023-03-23T10:08:10.748Z,70.18
2023-03-23T10:09:10.746Z,68.63
2023-03-23T10:10:10.742Z,69.34
2023-03-23T10:11:10.715Z,69.51
2023-03-23T10:12:10.741Z,69.81
2023-03-23T10:13:10.704Z,69.34
2023-03-23T10:14:10.691Z,69.95
2023-03-23T10:15:11.429Z,68.60
2023-03-23T10:16:10.685Z,69.27
2023-03-23T10:17:11.184Z,69.07
2023-03-23T10:18:10.673Z,68.63
2023-03-23T10:19:11.421Z,68.63
2023-03-23T10:20:10.650Z,69.01
2023-03-23T10:21:11.402Z,68.73
2023-03-23T10:22:10.629Z,69.24
2023-03-23T10:23:10.616Z,69.57
2023-03-23T10:24:10.670Z,70.36
2023-03-23T10:25:10.609Z,70.18
2023-03-23T10:26:10.614Z,69.88
2023-03-23T10:27:10.578Z,70.29
2023-03-23T10:28:10.588Z,70.62
2023-03-23T10:29:10.589Z,70.49
2023-03-23T10:30:10.568Z,70.69
2023-03-23T10:31:10.561Z,70.56
2023-03-23T10:32:10.545Z,70.65
2023-03-23T10:33:10.574Z,71.30
2023-03-23T10:34:10.558Z,71.80
2023-03-23T10:35:10.545Z,71.40
2023-03-23T10:36:10.567Z,71.80
2023-03-23T10:37:11.551Z,70.86
2023-03-23T10:38:10.516Z,71.16
2023-03-23T10:39:10.536Z,70.36
2023-03-23T10:40:10.507Z,70.45
2023-03-23T10:41:10.499Z,70.96
2023-03-23T10:42:10.483Z,71.80
2023-03-23T10:43:10.485Z,72.31
2023-03-23T10:44:10.467Z,72.11
2023-03-23T10:45:10.445Z,73.12
2023-03-23T10:46:11.416Z,73.49
2023-03-23T10:47:10.439Z,73.22
2023-03-23T10:48:10.443Z,73.32
2023-03-23T10:49:10.415Z,73.56
2023-03-23T10:50:11.418Z,74.37
2023-03-23T10:51:10.410Z,74.41
2023-03-23T10:52:10.449Z,75.12
2023-03-23T10:53:10.397Z,75.01
2023-03-23T10:54:11.125Z,75.05
2023-03-23T10:55:10.379Z,75.66
2023-03-23T10:56:10.361Z,76.47
2023-03-23T10:57:10.369Z,75.46
2023-03-23T10:58:10.374Z,75.86
2023-03-23T10:59:10.342Z,75.42
2023-03-23T11:00:10.341Z,74.27
2023-03-23T11:01:10.349Z,74.07
2023-03-23T11:02:13.608Z,74.07
2023-03-23T11:03:11.314Z,74.64
2023-03-23T11:04:10.315Z,74.13
2023-03-23T11:05:11.952Z,74.20
2023-03-23T11:06:11.945Z,73.43
2023-03-23T11:07:10.293Z,72.92
2023-03-23T11:08:10.260Z,73.22
2023-03-23T11:09:10.247Z,72.99
2023-03-23T11:10:11.266Z,74.07
2023-03-23T11:11:10.245Z,74.07
2023-03-23T11:12:10.237Z,74.00
2023-03-23T11:13:10.235Z,74.10
2023-03-23T11:14:10.262Z,73.29
2023-03-23T11:15:10.234Z,72.72
2023-03-23T11:16:10.210Z,71.80
2023-03-23T11:17:15.930Z,71.67
2023-03-23T11:18:12.202Z,71.80
2023-03-23T11:19:10.188Z,72.21
2023-03-23T11:20:10.190Z,71.88
2023-03-23T11:21:10.175Z,72.28
2023-03-23T11:22:10.168Z,71.77
2023-03-23T11:23:10.151Z,71.91
2023-03-23T11:24:10.364Z,72.81
2023-03-23T11:25:10.184Z,71.91
2023-03-23T11:26:10.142Z,71.88
2023-03-23T11:27:10.149Z,72.31
2023-03-23T11:28:10.149Z,72.28
2023-03-23T11:29:10.101Z,72.58
2023-03-23T11:30:10.118Z,71.33
2023-03-23T11:31:10.101Z,70.79
2023-03-23T11:32:10.108Z,70.02
2023-03-23T11:33:10.117Z,69.51
2023-03-23T11:34:10.086Z,68.57
2023-03-23T11:35:16.254Z,67.86
2023-03-23T11:36:12.056Z,67.46
2023-03-23T11:37:10.056Z,66.86
2023-03-23T11:38:10.048Z,65.61
2023-03-23T11:39:10.045Z,64.90
2023-03-23T11:40:10.029Z,64.81
2023-03-23T11:41:10.031Z,64.70
2023-03-23T11:42:10.020Z,64.90
2023-03-23T11:43:10.006Z,64.64
2023-03-23T11:44:10.047Z,65.24
2023-03-23T11:45:09.979Z,64.73
2023-03-23T11:46:10.021Z,65.14
2023-03-23T11:47:10.004Z,64.94
2023-03-23T11:48:09.966Z,65.24
2023-03-23T11:49:19.252Z,64.97
2023-03-23T11:50:11.953Z,66.18
2023-03-23T11:51:09.936Z,66.69
2023-03-23T11:52:09.958Z,67.32
2023-03-23T11:53:09.959Z,66.99
2023-03-23T11:54:09.961Z,67.19
2023-03-23T11:55:10.885Z,67.09
2023-03-23T11:56:09.949Z,66.61
2023-03-23T11:57:09.927Z,66.92
2023-03-23T11:58:09.896Z,67.46
2023-03-23T11:59:09.892Z,67.05
2023-03-23T12:00:09.868Z,67.55
2023-03-23T12:01:09.888Z,67.89
2023-03-23T12:02:16.989Z,68.23
2023-03-23T12:03:11.848Z,68.53
2023-03-23T12:04:09.837Z,68.84
2023-03-23T12:05:09.828Z,69.17
2023-03-23T12:06:09.867Z,69.37
2023-03-23T12:07:09.842Z,69.78
2023-03-23T12:08:09.822Z,70.29
2023-03-23T12:09:09.802Z,71.13
2023-03-23T12:10:09.807Z,71.23
2023-03-23T12:11:10.393Z,71.88
2023-03-23T12:12:09.776Z,72.72
2023-03-23T12:13:11.880Z,72.68
2023-03-23T12:14:09.798Z,73.09
2023-03-23T12:15:09.781Z,72.78
2023-03-23T12:16:09.737Z,72.17
2023-03-23T12:17:09.729Z,72.92
2023-03-23T12:18:09.811Z,73.53
2023-03-23T12:19:11.585Z,73.06
2023-03-23T12:20:10.411Z,73.87
2023-03-23T12:21:09.721Z,74.38
2023-03-23T12:22:10.489Z,74.17
2023-03-23T12:23:09.677Z,74.41
2023-03-23T12:24:09.686Z,74.17
2023-03-23T12:25:09.664Z,74.38
2023-03-23T12:26:09.672Z,74.27
2023-03-23T12:27:09.646Z,73.36
2023-03-23T12:28:09.641Z,73.43
2023-03-23T12:29:09.986Z,73.02
2023-03-23T12:30:09.617Z,73.12
2023-03-23T12:31:09.617Z,73.53
2023-03-23T12:32:09.618Z,73.73
2023-03-23T12:33:09.612Z,74.24
2023-03-23T12:34:09.669Z,74.74
2023-03-23T12:35:09.574Z,74.65
2023-03-23T12:36:09.592Z,74.98
2023-03-23T12:37:09.583Z,74.98
2023-03-23T12:38:09.561Z,74.88
2023-03-23T12:39:09.596Z,74.62
2023-03-23T12:40:09.560Z,74.68
2023-03-23T12:41:09.535Z,75.59
2023-03-23T12:42:09.545Z,74.58
2023-03-23T12:43:09.519Z,74.98
2023-03-23T12:44:09.526Z,74.38
2023-03-23T12:45:09.511Z,74.88
2023-03-23T12:46:09.499Z,74.88
2023-03-23T12:47:09.521Z,74.78
2023-03-23T12:48:09.472Z,74.07
2023-03-23T12:49:10.398Z,74.68
2023-03-23T12:50:11.401Z,74.71
2023-03-23T12:51:10.998Z,74.62
2023-03-23T12:52:09.448Z,74.71
2023-03-23T12:53:09.443Z,74.31
2023-03-23T12:54:10.409Z,73.60
2023-03-23T12:55:09.493Z,73.16
2023-03-23T12:56:09.419Z,73.50